createdAt,value
2019-02-21T00:01:32.996Z,24.90
2019-02-21T00:03:59.511Z,22.27
2019-02-21T00:06:26.043Z,19.00
2019-02-21T00:08:52.592Z,18.47
2019-02-21T00:11:19.128Z,14.57
2019-02-21T00:13:45.657Z,15.77
2019-02-21T00:16:12.486Z,19.10
2019-02-21T00:18:39.471Z,17.60
2019-02-21T00:21:06.089Z,19.27
2019-02-21T00:23:32.615Z,18.20
2019-02-21T00:25:59.147Z,17.77
2019-02-21T00:28:26.253Z,15.73
2019-02-21T00:30:53.060Z,18.00
2019-02-21T00:33:19.595Z,17.23
2019-02-21T00:35:46.125Z,19.17
2019-02-21T00:38:12.988Z,18.60
2019-02-21T00:40:39.500Z,19.07
2019-02-21T00:43:05.954Z,17.33
2019-02-21T00:45:32.618Z,17.93
2019-02-21T00:47:59.163Z,18.77
2019-02-21T00:50:25.636Z,15.73
2019-02-21T00:52:52.178Z,17.73
2019-02-21T00:55:18.727Z,14.90
2019-02-21T00:57:45.506Z,16.90
2019-02-21T01:00:12.963Z,15.90
2019-02-21T01:02:39.494Z,16.40
2019-02-21T01:05:06.065Z,15.90
2019-02-21T01:07:32.882Z,17.53
2019-02-21T01:09:59.394Z,13.53
2019-02-21T01:12:25.960Z,14.53
2019-02-21T01:14:52.888Z,19.37
2019-02-21T01:17:19.464Z,19.83
2019-02-21T01:19:45.997Z,18.73
2019-02-21T01:22:13.009Z,18.17
2019-02-21T01:24:40.216Z,17.47
2019-02-21T01:27:06.715Z,14.67
2019-02-21T01:29:33.507Z,15.37
2019-02-21T01:32:00.170Z,18.97
2019-02-21T01:34:26.627Z,16.23
2019-02-21T01:36:53.148Z,21.63
2019-02-21T01:39:19.788Z,16.37
2019-02-21T01:41:46.375Z,15.03
2019-02-21T01:44:12.860Z,14.03
2019-02-21T01:46:39.410Z,14.37
2019-02-21T01:49:05.940Z,16.43
2019-02-21T01:51:32.484Z,14.77
2019-02-21T01:53:58.996Z,13.80
2019-02-21T01:56:25.678Z,15.90
2019-02-21T01:58:52.133Z,16.37
2019-02-21T02:01:18.922Z,14.20
2019-02-21T02:03:45.431Z,18.67
2019-02-21T02:06:12.021Z,14.70
2019-02-21T02:08:38.802Z,13.60
2019-02-21T02:11:05.376Z,17.53
2019-02-21T02:13:31.963Z,15.20
2019-02-21T02:15:58.526Z,16.40
2019-02-21T02:18:25.742Z,17.60
2019-02-21T02:20:55.357Z,22.20
2019-02-21T02:23:27.461Z,19.97
2019-02-21T02:25:54.045Z,15.80
2019-02-21T02:28:22.763Z,17.97
2019-02-21T02:30:51.512Z,14.20
2019-02-21T02:33:18.136Z,19.73
2019-02-21T02:35:45.171Z,17.40
2019-02-21T02:38:17.803Z,18.07
2019-02-21T02:40:47.480Z,20.53
2019-02-21T02:43:15.476Z,19.90
2019-02-21T02:45:58.072Z,16.40
2019-02-21T02:48:26.037Z,18.90
2019-02-21T02:50:52.620Z,17.40
2019-02-21T02:53:19.130Z,19.57
2019-02-21T02:55:46.727Z,18.60
2019-02-21T02:58:13.221Z,19.83
2019-02-21T03:00:39.762Z,19.93
2019-02-21T03:03:06.250Z,20.63
2019-02-21T03:05:32.858Z,20.73
2019-02-21T03:07:59.381Z,24.37
2019-02-21T03:10:26.173Z,22.10
2019-02-21T03:12:52.665Z,22.40
2019-02-21T03:15:19.208Z,21.97
2019-02-21T03:17:45.757Z,21.93
2019-02-21T03:20:15.330Z,21.40
2019-02-21T03:22:43.447Z,23.03
2019-02-21T03:25:10.058Z,23.30
2019-02-21T03:27:37.405Z,24.80
2019-02-21T03:30:05.134Z,27.20
2019-02-21T03:32:33.459Z,23.20
2019-02-21T03:35:00.986Z,24.93
2019-02-21T03:37:29.156Z,26.20
2019-02-21T03:39:56.564Z,25.47
2019-02-21T03:42:23.383Z,22.77
2019-02-21T03:44:49.989Z,25.40
2019-02-21T03:47:17.627Z,20.43
2019-02-21T03:49:49.189Z,22.43
2019-02-21T03:52:16.923Z,22.17
2019-02-21T03:54:43.511Z,22.77
2019-02-21T03:57:12.037Z,21.47
2019-02-21T03:59:38.562Z,21.20
2019-02-21T04:02:05.934Z,25.93
2019-02-21T04:04:38.498Z,24.67
2019-02-21T04:07:05.134Z,23.33
2019-02-21T04:09:42.900Z,22.53
2019-02-21T04:12:09.620Z,25.10
2019-02-21T04:14:36.460Z,25.57
2019-02-21T04:17:03.034Z,26.60
2019-02-21T04:19:35.546Z,20.73
2019-02-21T04:22:02.167Z,25.77
2019-02-21T04:24:33.379Z,27.40
2019-02-21T04:26:59.253Z,25.77
2019-02-21T04:29:31.965Z,24.13
2019-02-21T04:31:58.479Z,24.20
2019-02-21T04:34:25.028Z,24.47
2019-02-21T04:36:51.677Z,28.70
2019-02-21T04:39:18.617Z,25.00
2019-02-21T04:41:45.137Z,30.47
2019-02-21T04:44:11.735Z,25.70
2019-02-21T04:46:38.523Z,26.63
2019-02-21T04:49:05.027Z,26.37
2019-02-21T04:51:31.554Z,29.67
2019-02-21T04:53:58.045Z,29.73
2019-02-21T04:56:36.428Z,30.57
2019-02-21T04:59:03.295Z,27.63
2019-02-21T05:01:29.844Z,28.13
2019-02-21T05:03:56.901Z,27.77
2019-02-21T05:06:23.361Z,28.23
2019-02-21T05:08:49.840Z,24.30
2019-02-21T05:11:18.666Z,25.90
2019-02-21T05:13:47.884Z,23.83
2019-02-21T05:16:14.398Z,24.23
2019-02-21T05:18:40.978Z,23.80
2019-02-21T05:21:07.756Z,23.37
2019-02-21T05:23:36.671Z,29.00
2019-02-21T05:26:02.636Z,26.50
2019-02-21T05:28:30.694Z,26.67
2019-02-21T05:31:01.765Z,23.77
2019-02-21T05:33:45.250Z,26.83
2019-02-21T05:36:32.135Z,27.97
2019-02-21T05:39:26.730Z,28.60
2019-02-21T05:42:15.784Z,24.63
2019-02-21T05:45:01.409Z,25.07
2019-02-21T05:47:39.168Z,27.50
2019-02-21T05:50:23.029Z,26.37
2019-02-21T05:53:14.577Z,28.33
2019-02-21T05:55:52.990Z,25.30
2019-02-21T05:58:28.449Z,22.67
2019-02-21T06:01:01.104Z,27.40
2019-02-21T06:03:37.526Z,25.03
2019-02-21T06:06:21.969Z,26.57
2019-02-21T06:09:06.479Z,27.33
2019-02-21T06:11:43.421Z,23.73
2019-02-21T06:14:33.637Z,27.47
2019-02-21T06:17:14.210Z,28.70
2019-02-21T06:20:03.371Z,23.33
2019-02-21T06:22:56.726Z,21.57
2019-02-21T06:25:33.110Z,23.97
2019-02-21T06:28:13.156Z,25.10
2019-02-21T06:30:47.599Z,24.67
2019-02-21T06:33:16.339Z,22.37
2019-02-21T06:35:44.807Z,24.80
2019-02-21T06:38:12.429Z,25.10
2019-02-21T06:40:41.142Z,24.30
2019-02-21T06:43:07.731Z,22.17
2019-02-21T06:45:34.774Z,24.27
2019-02-21T06:48:04.633Z,27.27
2019-02-21T06:50:32.153Z,24.47
2019-02-21T06:53:08.435Z,24.93
2019-02-21T06:55:35.087Z,23.47
2019-02-21T06:58:09.531Z,25.27
2019-02-21T07:00:36.622Z,22.60
2019-02-21T07:03:03.721Z,24.20
2019-02-21T07:05:30.712Z,23.80
2019-02-21T07:07:57.620Z,24.63
2019-02-21T07:10:26.192Z,23.50
2019-02-21T07:12:53.118Z,23.07
2019-02-21T07:15:19.959Z,24.97
2019-02-21T07:17:49.199Z,22.67
2019-02-21T07:20:15.208Z,25.03
2019-02-21T07:22:41.741Z,23.00
2019-02-21T07:25:22.800Z,22.00
2019-02-21T07:27:49.591Z,22.73
2019-02-21T07:30:20.169Z,22.40
2019-02-21T07:32:44.600Z,26.33
2019-02-21T07:35:11.305Z,22.80
2019-02-21T07:37:37.849Z,27.13
2019-02-21T07:40:04.847Z,26.23
2019-02-21T07:42:33.185Z,24.50
2019-02-21T07:45:00.949Z,22.07
2019-02-21T07:47:27.887Z,22.63
2019-02-21T07:49:55.276Z,24.37
2019-02-21T07:52:21.838Z,24.13
2019-02-21T07:55:01.739Z,26.17
2019-02-21T07:57:36.696Z,23.03
2019-02-21T08:00:07.295Z,23.87
2019-02-21T08:02:34.272Z,25.03
2019-02-21T08:05:02.345Z,24.13
2019-02-21T08:07:29.020Z,23.43
2019-02-21T08:09:55.621Z,25.87
2019-02-21T08:12:23.303Z,23.50
2019-02-21T08:14:52.259Z,24.10
2019-02-21T08:17:18.893Z,25.43
2019-02-21T08:19:45.515Z,20.23
2019-02-21T08:22:12.733Z,24.57
2019-02-21T08:24:39.803Z,23.63
2019-02-21T08:27:06.404Z,26.33
2019-02-21T08:29:33.595Z,23.30
2019-02-21T08:32:00.313Z,21.57
2019-02-21T08:34:48.273Z,23.03
2019-02-21T08:37:20.485Z,21.80
2019-02-21T08:39:47.091Z,20.13
2019-02-21T08:42:13.695Z,24.07
2019-02-21T08:44:40.592Z,18.63
2019-02-21T08:47:07.613Z,23.23
2019-02-21T08:49:34.368Z,19.40
2019-02-21T08:52:01.799Z,22.50
2019-02-21T08:54:28.347Z,23.90
2019-02-21T08:56:54.953Z,20.40
2019-02-21T08:59:23.076Z,25.33
2019-02-21T09:01:49.757Z,21.57
2019-02-21T09:04:26.986Z,24.90
2019-02-21T09:06:46.080Z,23.00
2019-02-21T09:09:13.013Z,21.33
2019-02-21T09:11:39.621Z,26.87
2019-02-21T09:14:06.268Z,21.70
2019-02-21T09:16:32.814Z,22.40
2019-02-21T09:18:59.550Z,20.13
2019-02-21T09:21:26.296Z,26.60
2019-02-21T09:23:52.813Z,21.80
2019-02-21T09:26:21.652Z,23.13
2019-02-21T09:28:48.224Z,25.33
2019-02-21T09:31:16.177Z,21.27
2019-02-21T09:33:43.842Z,20.73
2019-02-21T09:36:10.987Z,23.80
2019-02-21T09:38:37.904Z,20.97
2019-02-21T09:41:04.774Z,24.90
2019-02-21T09:43:31.624Z,23.35
2019-02-21T09:45:58.464Z,20.60
2019-02-21T09:48:26.125Z,19.90
2019-02-21T09:50:52.718Z,22.67
2019-02-21T09:53:19.317Z,26.33
2019-02-21T09:55:46.067Z,23.10
2019-02-21T09:58:12.962Z,22.63
2019-02-21T10:00:42.872Z,23.97
2019-02-21T10:03:12.343Z,21.37
2019-02-21T10:05:39.804Z,23.23
2019-02-21T10:08:06.701Z,23.40
2019-02-21T10:10:33.403Z,21.13
2019-02-21T10:13:00.208Z,22.83
2019-02-21T10:15:26.957Z,23.70
2019-02-21T10:17:55.293Z,19.17
2019-02-21T10:20:22.104Z,19.60
2019-02-21T10:22:49.718Z,18.43
2019-02-21T10:25:18.634Z,20.80
2019-02-21T10:27:46.488Z,17.30
2019-02-21T10:30:14.289Z,18.10
2019-02-21T10:32:40.986Z,18.17
2019-02-21T10:35:07.919Z,21.33
2019-02-21T10:37:34.644Z,16.73
2019-02-21T10:40:03.213Z,21.03
2019-02-21T10:42:31.026Z,20.87
2019-02-21T10:44:57.815Z,18.00
2019-02-21T10:47:24.514Z,16.90
2019-02-21T10:49:51.137Z,18.30
2019-02-21T10:52:18.806Z,20.47
2019-02-21T10:54:45.818Z,17.70
2019-02-21T10:57:12.519Z,17.33
2019-02-21T10:59:46.726Z,19.03
2019-02-21T11:02:09.437Z,20.00
2019-02-21T11:04:38.374Z,19.83
2019-02-21T11:07:06.184Z,18.57
2019-02-21T11:09:33.613Z,17.87
2019-02-21T11:12:03.508Z,20.83
2019-02-21T11:14:30.346Z,17.10
2019-02-21T11:16:56.965Z,16.13
2019-02-21T11:19:27.948Z,20.73
2019-02-21T11:21:54.788Z,18.57
2019-02-21T11:24:22.766Z,18.17
2019-02-21T11:26:49.404Z,17.50
2019-02-21T11:29:19.251Z,19.47
2019-02-21T11:31:46.456Z,22.67
2019-02-21T11:34:13.835Z,20.33
2019-02-21T11:36:41.062Z,18.80
2019-02-21T11:39:07.751Z,18.90
2019-02-21T11:41:34.666Z,22.27
2019-02-21T11:44:02.684Z,20.10
2019-02-21T11:46:30.352Z,21.60
2019-02-21T11:48:57.573Z,18.30
2019-02-21T11:51:24.229Z,20.40
2019-02-21T11:53:52.287Z,20.03
2019-02-21T11:56:19.375Z,19.37
2019-02-21T11:58:46.118Z,19.77
2019-02-21T12:01:16.113Z,18.63
2019-02-21T12:03:53.262Z,18.70
2019-02-21T12:06:24.446Z,17.00
2019-02-21T12:08:55.893Z,17.33
2019-02-21T12:11:25.527Z,15.87
2019-02-21T12:13:53.842Z,19.87
2019-02-21T12:16:25.853Z,15.50
2019-02-21T12:18:54.354Z,15.87
2019-02-21T12:21:21.017Z,17.73
2019-02-21T12:23:47.759Z,17.27
2019-02-21T12:26:30.078Z,21.53
2019-02-21T12:29:01.859Z,17.70
2019-02-21T12:31:33.988Z,16.90
2019-02-21T12:34:05.088Z,14.17
2019-02-21T12:36:32.152Z,14.33
2019-02-21T12:38:58.756Z,15.10
2019-02-21T12:41:29.814Z,17.20
2019-02-21T12:44:03.957Z,13.43
2019-02-21T12:46:36.065Z,10.83
2019-02-21T12:49:04.247Z,8.33
2019-02-21T12:51:31.906Z,7.93
2019-02-21T12:53:58.764Z,7.97
2019-02-21T12:56:31.214Z,11.17
2019-02-21T12:59:04.199Z,6.63
2019-02-21T13:01:34.873Z,7.97
2019-02-21T13:04:11.332Z,7.20
2019-02-21T13:06:51.988Z,8.13
2019-02-21T13:09:26.163Z,5.83
2019-02-21T13:11:54.979Z,7.47
2019-02-21T13:14:21.595Z,7.60
2019-02-21T13:16:49.582Z,9.13
2019-02-21T13:19:16.447Z,7.43
2019-02-21T13:21:43.207Z,7.73
2019-02-21T13:24:10.033Z,9.87
2019-02-21T13:26:36.673Z,8.33
2019-02-21T13:29:03.423Z,10.70
2019-02-21T13:31:30.035Z,11.27
2019-02-21T13:33:56.664Z,8.20
2019-02-21T13:36:23.753Z,12.47
2019-02-21T13:38:50.781Z,10.13
2019-02-21T13:41:18.110Z,10.20
2019-02-21T13:43:45.286Z,11.23
2019-02-21T13:46:11.800Z,11.27
2019-02-21T13:48:38.688Z,10.90
2019-02-21T13:51:06.544Z,9.73
2019-02-21T13:53:33.449Z,9.30
2019-02-21T13:56:02.154Z,15.13
2019-02-21T13:58:28.912Z,13.40
2019-02-21T14:00:55.482Z,11.80
2019-02-21T14:03:22.032Z,13.50
2019-02-21T14:05:48.648Z,11.30
2019-02-21T14:08:17.619Z,13.57
2019-02-21T14:10:44.458Z,10.50
2019-02-21T14:13:11.947Z,13.90
2019-02-21T14:15:38.499Z,13.70
2019-02-21T14:18:05.137Z,12.87
2019-02-21T14:20:31.789Z,15.90
2019-02-21T14:22:58.413Z,15.30
2019-02-21T14:25:24.954Z,13.03
2019-02-21T14:27:51.475Z,16.03
2019-02-21T14:30:18.130Z,13.10
2019-02-21T14:32:44.882Z,16.87
2019-02-21T14:35:11.659Z,15.83
2019-02-21T14:37:38.359Z,16.57
2019-02-21T14:40:06.427Z,14.90
2019-02-21T14:42:33.336Z,16.07
2019-02-21T14:44:59.864Z,18.10
2019-02-21T14:47:26.689Z,17.57
2019-02-21T14:49:53.389Z,15.73
2019-02-21T14:52:20.034Z,14.17
2019-02-21T14:54:46.722Z,16.47
2019-02-21T14:57:15.474Z,14.97
2019-02-21T14:59:44.621Z,17.97
2019-02-21T15:02:10.759Z,18.23
2019-02-21T15:04:38.296Z,16.47
2019-02-21T15:07:06.611Z,17.27
2019-02-21T15:09:33.627Z,15.37
2019-02-21T15:12:00.345Z,13.97
2019-02-21T15:14:27.316Z,18.37
2019-02-21T15:16:54.126Z,14.50
2019-02-21T15:19:21.164Z,13.40
2019-02-21T15:21:48.193Z,18.83
2019-02-21T15:24:15.116Z,17.13
2019-02-21T15:26:41.870Z,17.40
2019-02-21T15:29:08.557Z,17.90
2019-02-21T15:31:35.129Z,19.30
2019-02-21T15:34:01.882Z,17.83
2019-02-21T15:36:37.863Z,15.90
2019-02-21T15:38:57.191Z,19.23
2019-02-21T15:41:24.065Z,16.70
2019-02-21T15:43:50.751Z,17.87
2019-02-21T15:46:17.615Z,17.43
2019-02-21T15:48:44.718Z,16.87
2019-02-21T15:51:11.512Z,17.13
2019-02-21T15:53:38.174Z,16.20
2019-02-21T15:56:04.878Z,18.90
2019-02-21T15:58:31.563Z,20.27
2019-02-21T16:00:58.602Z,17.20
2019-02-21T16:03:25.296Z,19.70
2019-02-21T16:05:51.841Z,21.90
2019-02-21T16:08:18.970Z,20.13
2019-02-21T16:10:45.539Z,18.60
2019-02-21T16:13:12.206Z,18.63
2019-02-21T16:15:38.780Z,24.97
2019-02-21T16:18:05.350Z,19.10
2019-02-21T16:20:31.853Z,21.43
2019-02-21T16:22:58.406Z,19.20
2019-02-21T16:25:24.946Z,23.17
2019-02-21T16:27:51.531Z,22.13
2019-02-21T16:30:18.081Z,24.03
2019-02-21T16:32:44.884Z,23.83
2019-02-21T16:35:11.503Z,20.70
2019-02-21T16:37:37.990Z,24.17
2019-02-21T16:40:08.128Z,25.23
2019-02-21T16:42:34.658Z,22.77
2019-02-21T16:45:01.420Z,23.40
2019-02-21T16:47:27.898Z,27.50
2019-02-21T16:49:54.464Z,26.47
2019-02-21T16:52:22.185Z,23.80
2019-02-21T16:54:49.196Z,27.17
2019-02-21T16:57:15.720Z,24.63
2019-02-21T16:59:43.427Z,27.57
2019-02-21T17:02:10.130Z,23.60
2019-02-21T17:04:36.624Z,26.87
2019-02-21T17:07:13.313Z,30.40
2019-02-21T17:09:36.789Z,29.50
2019-02-21T17:12:03.312Z,27.27
2019-02-21T17:14:29.839Z,24.37
2019-02-21T17:16:57.513Z,28.87
2019-02-21T17:19:24.443Z,29.20
2019-02-21T17:21:51.038Z,29.10
2019-02-21T17:24:17.612Z,31.00
2019-02-21T17:26:45.181Z,26.83
2019-02-21T17:29:11.690Z,27.23
2019-02-21T17:31:38.539Z,30.00
2019-02-21T17:34:05.886Z,32.50
2019-02-21T17:36:32.836Z,27.93
2019-02-21T17:39:04.078Z,28.40
2019-02-21T17:41:30.623Z,24.80
2019-02-21T17:43:57.369Z,26.07
2019-02-21T17:46:24.139Z,30.30
2019-02-21T17:48:50.732Z,28.33
2019-02-21T17:51:17.244Z,31.47
2019-02-21T17:53:43.797Z,27.93
2019-02-21T17:56:10.505Z,30.30
2019-02-21T17:58:37.208Z,29.10
2019-02-21T18:01:04.063Z,29.17
2019-02-21T18:03:30.926Z,27.33
2019-02-21T18:05:57.710Z,26.13
2019-02-21T18:08:24.209Z,27.40
2019-02-21T18:10:51.049Z,28.90
2019-02-21T18:13:17.567Z,27.87
2019-02-21T18:15:44.088Z,31.87
2019-02-21T18:18:10.916Z,29.90
2019-02-21T18:20:37.407Z,27.67
2019-02-21T18:23:04.438Z,30.03
2019-02-21T18:25:36.906Z,33.67
2019-02-21T18:28:03.590Z,32.13
2019-02-21T18:30:30.181Z,28.60
2019-02-21T18:32:56.717Z,27.83
2019-02-21T18:35:23.213Z,38.80
2019-02-21T18:37:49.730Z,34.30
2019-02-21T18:40:18.458Z,30.27
2019-02-21T18:42:44.786Z,31.43
2019-02-21T18:45:11.601Z,29.90
2019-02-21T18:47:38.596Z,33.33
2019-02-21T18:50:05.248Z,31.07
2019-02-21T18:52:31.784Z,34.00
2019-02-21T18:54:58.372Z,31.53
2019-02-21T18:57:31.745Z,31.80
2019-02-21T18:59:58.385Z,32.80
2019-02-21T19:02:28.935Z,32.73
2019-02-21T19:04:59.590Z,31.40
2019-02-21T19:07:26.325Z,35.97
2019-02-21T19:09:53.320Z,28.90
2019-02-21T19:12:19.905Z,31.23
2019-02-21T19:14:46.488Z,33.57
2019-02-21T19:17:13.301Z,38.13
2019-02-21T19:19:40.077Z,31.73
2019-02-21T19:22:06.812Z,33.47
2019-02-21T19:24:44.606Z,31.97
2019-02-21T19:27:24.654Z,32.30
2019-02-21T19:36:50.158Z,33.73
2019-02-21T19:39:50.250Z,35.73
2019-02-21T19:43:10.294Z,32.60
2019-02-21T19:45:46.844Z,40.77
2019-02-21T19:48:19.208Z,33.97
2019-02-21T19:50:59.565Z,33.93
2019-02-21T19:53:35.499Z,34.80
2019-02-21T19:56:08.730Z,38.27
2019-02-21T19:58:38.819Z,38.20
2019-02-21T20:01:23.272Z,37.47
2019-02-21T20:03:53.848Z,36.03
2019-02-21T20:06:21.678Z,35.90
2019-02-21T20:08:54.712Z,38.83
2019-02-21T20:11:22.808Z,36.10
2019-02-21T20:13:52.323Z,38.17
2019-02-21T20:16:19.624Z,34.87
2019-02-21T20:18:46.417Z,41.20
2019-02-21T20:21:13.318Z,35.27
2019-02-21T20:23:40.220Z,38.50
2019-02-21T20:26:17.647Z,34.27
2019-02-21T20:28:35.467Z,39.43
2019-02-21T20:31:02.121Z,39.17
2019-02-21T20:33:29.141Z,37.40
2019-02-21T20:35:56.044Z,35.93
2019-02-21T20:38:31.772Z,38.30
2019-02-21T20:40:52.634Z,39.20
2019-02-21T20:43:19.377Z,43.70
2019-02-21T20:45:53.139Z,41.67
2019-02-21T20:48:17.995Z,43.53
2019-02-21T20:50:56.432Z,49.27
2019-02-21T20:53:15.366Z,43.97
2019-02-21T20:55:44.173Z,46.43
2019-02-21T20:58:11.831Z,41.93
2019-02-21T21:00:38.701Z,40.00
2019-02-21T21:03:05.394Z,39.57
2019-02-21T21:05:32.039Z,40.83
2019-02-21T21:08:12.629Z,40.50
2019-02-21T21:10:39.238Z,40.47
2019-02-21T21:13:06.007Z,39.40
2019-02-21T21:15:34.778Z,41.03
2019-02-21T21:18:01.507Z,38.73
2019-02-21T21:20:29.018Z,41.90
2019-02-21T21:22:55.889Z,39.93
2019-02-21T21:25:22.710Z,39.20
2019-02-21T21:27:50.703Z,41.87
2019-02-21T21:30:17.417Z,42.60
2019-02-21T21:32:46.429Z,44.27
2019-02-21T21:35:13.094Z,39.73
2019-02-21T21:37:39.725Z,41.77
2019-02-21T21:40:08.548Z,40.53
2019-02-21T21:42:35.043Z,38.07
2019-02-21T21:45:01.566Z,40.53
2019-02-21T21:47:30.415Z,41.33
2019-02-21T21:49:56.878Z,43.17
2019-02-21T21:52:25.515Z,38.73
2019-02-21T21:54:52.029Z,41.67
2019-02-21T21:57:18.940Z,42.60
2019-02-21T21:59:45.466Z,45.43
2019-02-21T22:02:12.366Z,41.13
2019-02-21T22:04:39.005Z,44.53
2019-02-21T22:07:05.725Z,40.80
2019-02-21T22:09:34.393Z,38.83
2019-02-21T22:12:00.957Z,42.90
2019-02-21T22:14:27.474Z,38.50
2019-02-21T22:16:56.085Z,40.47
2019-02-21T22:19:22.584Z,40.80
2019-02-21T22:21:49.035Z,44.63
2019-02-21T22:24:15.546Z,44.30
2019-02-21T22:26:42.039Z,43.80
2019-02-21T22:29:08.577Z,43.23
2019-02-21T22:31:35.069Z,43.80
2019-02-21T22:34:01.589Z,38.60
2019-02-21T22:36:28.087Z,46.17
2019-02-21T22:38:54.630Z,43.37
2019-02-21T22:41:21.088Z,42.80
2019-02-21T22:43:47.556Z,42.23
2019-02-21T22:46:14.109Z,42.37
2019-02-21T22:48:47.196Z,43.47
2019-02-21T22:51:10.305Z,42.80
2019-02-21T22:53:36.876Z,40.47
2019-02-21T22:56:03.342Z,45.97
2019-02-21T22:58:29.940Z,45.47
2019-02-21T23:01:23.303Z,42.27
2019-02-21T23:04:14.601Z,40.00
2019-02-21T23:07:06.660Z,42.70
2019-02-21T23:09:34.073Z,41.17
2019-02-21T23:12:00.994Z,41.93
2019-02-21T23:14:27.866Z,45.63
2019-02-21T23:16:54.734Z,39.07
2019-02-21T23:19:24.122Z,45.23
2019-02-21T23:21:50.201Z,41.27
2019-02-21T23:24:16.942Z,39.70
2019-02-21T23:26:43.529Z,39.37
2019-02-21T23:29:10.180Z,40.93
2019-02-21T23:31:36.731Z,39.67
2019-02-21T23:34:03.949Z,36.00
2019-02-21T23:36:30.440Z,41.53
2019-02-21T23:38:57.031Z,35.20
2019-02-21T23:41:23.574Z,39.47
2019-02-21T23:43:50.116Z,37.63
2019-02-21T23:46:16.721Z,40.23
2019-02-21T23:48:43.197Z,38.43
2019-02-21T23:51:09.662Z,36.63
2019-02-21T23:53:36.406Z,36.70
2019-02-21T23:56:02.946Z,37.53
2019-02-21T23:58:29.414Z,35.37
